Anson, Texas
Current Conditions -  °F | °C
As of 4:58 PM on Wednesday 22 Oct 2014 (Local Time) from KDYS Reporting Station
Overcast Overcast  
Wind Chill: 69°   Ceiling: 6500
Heat Index: 69°   Visibility: 10mi
Dew Point: 56°   Wind: 0mph
Humidity: 63%   Direction: NA
Pressure: 30.1"   Gusts: NA
Location:  32.76°N, 99.9°W
Report Text: KDYS 222158Z AUTO 00000KT 10SM OVC065 20/13 A3010 RMK AO2 DZE2108 SLP164 P0000 T02040132
Loading
Personal Weather Stations






























Interactive Weather Map
Tropical Storm Tracking
New forecast layout! Learn more

10-Day Weather Forecast

Advertisements
Track Severe Weather on mobile